createdAt,value
2019-03-27T00:01:55.827Z,8.05
2019-03-27T00:04:22.487Z,7.75
2019-03-27T00:06:49.222Z,7.15
2019-03-27T00:09:15.839Z,7.62
2019-03-27T00:11:42.560Z,7.25
2019-03-27T00:14:09.238Z,7.50
2019-03-27T00:16:35.976Z,7.85
2019-03-27T00:19:02.633Z,8.38
2019-03-27T00:21:29.335Z,8.25
2019-03-27T00:23:55.982Z,7.80
2019-03-27T00:26:22.647Z,7.33
2019-03-27T00:28:49.307Z,7.72
2019-03-27T00:31:15.959Z,6.97
2019-03-27T00:33:42.589Z,7.85
2019-03-27T00:36:09.371Z,8.10
2019-03-27T00:38:36.018Z,8.10
2019-03-27T00:41:02.779Z,8.05
2019-03-27T00:43:29.502Z,8.20
2019-03-27T00:45:56.177Z,8.28
2019-03-27T00:48:22.819Z,8.35
2019-03-27T00:50:49.514Z,8.45
2019-03-27T00:53:16.126Z,7.95
2019-03-27T00:55:42.878Z,7.80
2019-03-27T00:58:09.537Z,7.87
2019-03-27T01:00:46.009Z,8.05
2019-03-27T01:03:12.729Z,8.30
2019-03-27T01:05:39.462Z,7.10
2019-03-27T01:08:06.206Z,7.72
2019-03-27T01:10:32.892Z,7.65
2019-03-27T01:12:59.580Z,7.67
2019-03-27T01:15:38.832Z,7.62
2019-03-27T01:17:55.004Z,7.72
2019-03-27T01:20:21.851Z,7.90
2019-03-27T01:22:48.488Z,7.33
2019-03-27T01:25:15.161Z,7.80
2019-03-27T01:27:41.829Z,8.20
2019-03-27T01:30:08.730Z,8.00
2019-03-27T01:32:35.448Z,7.22
2019-03-27T01:35:02.214Z,7.85
2019-03-27T01:37:28.799Z,7.97
2019-03-27T01:39:55.560Z,7.55
2019-03-27T01:42:22.497Z,7.87
2019-03-27T01:44:49.245Z,7.58
2019-03-27T01:47:16.078Z,7.20
2019-03-27T01:49:43.876Z,7.22
2019-03-27T01:52:10.582Z,7.17
2019-03-27T01:54:37.327Z,7.03
2019-03-27T01:57:04.071Z,7.25
2019-03-27T01:59:30.705Z,7.12
2019-03-27T02:01:57.447Z,6.58
2019-03-27T02:04:24.121Z,7.12
2019-03-27T02:06:50.823Z,6.85
2019-03-27T02:09:17.574Z,6.85
2019-03-27T02:11:44.269Z,6.92
2019-03-27T02:14:10.868Z,7.10
2019-03-27T02:16:37.505Z,6.87
2019-03-27T02:19:04.220Z,7.40
2019-03-27T02:21:30.949Z,6.80
2019-03-27T02:23:57.591Z,7.03
2019-03-27T02:26:24.325Z,7.78
2019-03-27T02:28:50.952Z,6.85
2019-03-27T02:31:17.596Z,7.05
2019-03-27T02:33:44.337Z,6.62
2019-03-27T02:36:11.079Z,6.67
2019-03-27T02:38:37.796Z,6.40
2019-03-27T02:41:04.632Z,6.40
2019-03-27T02:43:31.343Z,6.50
2019-03-27T02:45:58.033Z,6.53
2019-03-27T02:48:24.738Z,6.30
2019-03-27T02:50:51.525Z,6.53
2019-03-27T02:53:19.384Z,6.42
2019-03-27T02:55:46.127Z,6.03
2019-03-27T02:58:12.760Z,7.40
2019-03-27T03:00:39.416Z,8.18
2019-03-27T03:03:06.091Z,7.17
2019-03-27T03:05:32.765Z,6.72
2019-03-27T03:07:59.407Z,6.15
2019-03-27T03:10:26.142Z,6.22
2019-03-27T03:12:52.883Z,6.22
2019-03-27T03:15:20.858Z,6.30
2019-03-27T03:17:48.207Z,6.12
2019-03-27T03:20:14.850Z,6.22
2019-03-27T03:22:41.599Z,6.50
2019-03-27T03:25:08.643Z,6.67
2019-03-27T03:27:36.388Z,6.58
2019-03-27T03:30:06.396Z,6.90
2019-03-27T03:32:33.118Z,6.80
2019-03-27T03:34:59.793Z,6.87
2019-03-27T03:37:26.439Z,7.67
2019-03-27T03:39:53.116Z,7.10
2019-03-27T03:42:19.903Z,7.33
2019-03-27T03:44:48.580Z,7.58
2019-03-27T03:47:15.324Z,7.08
2019-03-27T03:49:41.984Z,7.03
2019-03-27T03:52:08.879Z,6.83
2019-03-27T03:54:35.795Z,6.22
2019-03-27T03:57:02.713Z,6.30
2019-03-27T03:59:29.539Z,6.85
2019-03-27T04:01:59.852Z,6.20
2019-03-27T04:04:27.719Z,6.17
2019-03-27T04:06:54.368Z,6.53
2019-03-27T04:09:21.061Z,5.83
2019-03-27T04:11:47.746Z,6.40
2019-03-27T04:14:14.373Z,5.92
2019-03-27T04:16:41.218Z,6.35
2019-03-27T04:19:07.857Z,6.20
2019-03-27T04:21:34.450Z,6.28
2019-03-27T04:24:01.236Z,5.95
2019-03-27T04:26:27.975Z,6.90
2019-03-27T04:28:54.703Z,5.90
2019-03-27T04:31:21.552Z,6.37
2019-03-27T04:33:48.161Z,5.50
2019-03-27T04:36:14.936Z,5.90
2019-03-27T04:38:41.687Z,6.42
2019-03-27T04:41:08.508Z,6.55
2019-03-27T04:43:35.250Z,6.12
2019-03-27T04:46:02.901Z,5.80
2019-03-27T04:48:29.625Z,6.50
2019-03-27T04:50:56.339Z,6.28
2019-03-27T04:53:23.080Z,6.72
2019-03-27T04:55:50.679Z,6.67
2019-03-27T04:58:17.530Z,6.20
2019-03-27T05:00:44.261Z,5.65
2019-03-27T05:03:11.106Z,5.58
2019-03-27T05:05:37.851Z,6.00
2019-03-27T05:08:04.572Z,5.92
2019-03-27T05:10:31.198Z,5.85
2019-03-27T05:12:57.921Z,8.68
2019-03-27T05:15:24.615Z,7.10
2019-03-27T05:17:51.343Z,6.40
2019-03-27T05:20:18.114Z,6.45
2019-03-27T05:22:44.830Z,5.90
2019-03-27T05:25:11.432Z,6.22
2019-03-27T05:27:38.076Z,7.05
2019-03-27T05:30:06.163Z,6.95
2019-03-27T05:32:32.793Z,7.50
2019-03-27T05:35:00.561Z,8.13
2019-03-27T05:37:27.231Z,8.35
2019-03-27T05:39:53.837Z,7.35
2019-03-27T05:42:20.480Z,7.47
2019-03-27T05:44:47.167Z,6.95
2019-03-27T05:47:13.853Z,8.45
2019-03-27T05:49:40.501Z,7.05
2019-03-27T05:52:07.186Z,7.45
2019-03-27T05:54:33.792Z,7.83
2019-03-27T05:57:00.455Z,9.20
2019-03-27T05:59:27.152Z,9.13
2019-03-27T06:01:53.897Z,8.85
2019-03-27T06:04:20.606Z,9.25
2019-03-27T06:06:47.321Z,11.48
2019-03-27T06:09:13.982Z,12.07
2019-03-27T06:11:40.686Z,11.63
2019-03-27T06:14:07.477Z,10.88
2019-03-27T06:16:34.213Z,11.53
2019-03-27T06:19:00.917Z,11.85
2019-03-27T06:21:27.685Z,12.13
2019-03-27T06:23:54.278Z,11.63
2019-03-27T06:26:20.943Z,12.78
2019-03-27T06:28:47.704Z,12.13
2019-03-27T06:31:14.449Z,12.30
2019-03-27T06:33:41.155Z,11.60
2019-03-27T06:36:07.837Z,11.05
2019-03-27T06:38:34.492Z,10.63
2019-03-27T06:41:01.119Z,11.53
2019-03-27T06:43:27.847Z,11.45
2019-03-27T06:45:54.575Z,10.98
2019-03-27T06:48:26.447Z,11.45
2019-03-27T06:50:49.930Z,9.95
2019-03-27T06:53:16.544Z,9.93
2019-03-27T06:55:43.510Z,10.90
2019-03-27T06:58:10.189Z,10.43
2019-03-27T07:00:37.191Z,9.40
2019-03-27T07:03:05.141Z,10.95
2019-03-27T07:05:32.044Z,11.60
2019-03-27T07:07:59.102Z,11.33
2019-03-27T07:10:25.801Z,11.20
2019-03-27T07:12:52.472Z,11.10
2019-03-27T07:15:19.120Z,10.88
2019-03-27T07:17:45.749Z,11.78
2019-03-27T07:20:13.567Z,11.43
2019-03-27T07:22:40.177Z,11.05
2019-03-27T07:25:07.861Z,10.45
2019-03-27T07:27:35.558Z,9.83
2019-03-27T07:30:02.782Z,8.83
2019-03-27T07:32:30.916Z,6.72
2019-03-27T07:34:57.653Z,6.40
2019-03-27T07:37:24.412Z,6.25
2019-03-27T07:39:51.136Z,6.42
2019-03-27T07:42:17.866Z,5.75
2019-03-27T07:44:44.460Z,6.25
2019-03-27T07:47:11.157Z,5.87
2019-03-27T07:49:37.921Z,6.33
2019-03-27T07:52:04.645Z,6.12
2019-03-27T07:54:31.368Z,6.33
2019-03-27T07:56:58.486Z,6.53
2019-03-27T07:59:26.083Z,6.37
2019-03-27T08:01:52.755Z,5.85
2019-03-27T08:04:19.428Z,5.08
2019-03-27T08:06:46.087Z,4.80
2019-03-27T08:09:12.852Z,5.45
2019-03-27T08:11:39.582Z,5.17
2019-03-27T08:14:06.475Z,5.20
2019-03-27T08:16:33.142Z,5.50
2019-03-27T08:19:07.381Z,5.03
2019-03-27T08:21:31.076Z,5.47
2019-03-27T08:23:56.966Z,6.22
2019-03-27T08:26:23.595Z,6.12
2019-03-27T08:28:50.299Z,5.45
2019-03-27T08:31:16.917Z,6.65
2019-03-27T08:33:43.586Z,6.65
2019-03-27T08:36:10.291Z,7.37
2019-03-27T08:38:36.914Z,7.53
2019-03-27T08:41:03.647Z,8.75
2019-03-27T08:43:30.307Z,8.58
2019-03-27T08:45:57.033Z,9.18
2019-03-27T08:48:23.727Z,8.00
2019-03-27T08:50:50.490Z,7.78
2019-03-27T08:53:17.211Z,7.95
2019-03-27T08:55:43.887Z,8.38
2019-03-27T08:58:10.688Z,9.70
2019-03-27T09:00:53.883Z,7.95
2019-03-27T09:03:20.579Z,7.42
2019-03-27T09:05:48.321Z,7.70
2019-03-27T09:08:15.115Z,8.30
2019-03-27T09:10:41.872Z,8.85
2019-03-27T09:13:08.592Z,8.25
2019-03-27T09:15:35.303Z,8.65
2019-03-27T09:18:01.904Z,7.75
2019-03-27T09:20:28.637Z,8.50
2019-03-27T09:22:55.251Z,8.25
2019-03-27T09:25:21.842Z,7.85
2019-03-27T09:27:48.531Z,7.90
2019-03-27T09:30:15.717Z,7.37
2019-03-27T09:32:42.334Z,8.45
2019-03-27T09:35:09.325Z,8.13
2019-03-27T09:37:35.961Z,7.87
2019-03-27T09:40:04.051Z,7.17
2019-03-27T09:42:30.741Z,5.67
2019-03-27T09:44:57.428Z,5.47
2019-03-27T09:47:24.075Z,5.17
2019-03-27T09:49:50.778Z,4.53
2019-03-27T09:52:17.436Z,5.22
2019-03-27T09:54:44.111Z,4.65
2019-03-27T09:57:11.890Z,5.17
2019-03-27T09:59:38.558Z,4.28
2019-03-27T10:02:05.185Z,4.83
2019-03-27T10:04:31.896Z,4.65
2019-03-27T10:06:59.529Z,4.90
2019-03-27T10:09:26.188Z,5.08
2019-03-27T10:11:52.889Z,4.90
2019-03-27T10:14:19.531Z,6.12
2019-03-27T10:16:46.255Z,5.33
2019-03-27T10:19:12.963Z,4.05
2019-03-27T10:21:39.657Z,3.98
2019-03-27T10:24:06.378Z,4.10
2019-03-27T10:26:33.087Z,3.65
2019-03-27T10:28:59.701Z,3.90
2019-03-27T10:31:26.366Z,3.65
2019-03-27T10:33:53.138Z,4.00
2019-03-27T10:36:19.868Z,5.50
2019-03-27T10:38:46.594Z,5.50
2019-03-27T10:41:13.328Z,5.17
2019-03-27T10:43:39.915Z,4.58
2019-03-27T10:46:06.563Z,3.77
2019-03-27T10:48:33.290Z,4.58
2019-03-27T10:50:59.887Z,4.50
2019-03-27T10:53:26.530Z,4.03
2019-03-27T10:55:53.229Z,3.70
2019-03-27T10:58:19.844Z,4.83
2019-03-27T11:00:46.474Z,5.03
2019-03-27T11:03:13.160Z,4.42
2019-03-27T11:05:39.761Z,4.72
2019-03-27T11:08:06.372Z,5.22
2019-03-27T11:10:33.042Z,4.65
2019-03-27T11:12:59.639Z,4.80
2019-03-27T11:15:26.263Z,5.33
2019-03-27T11:17:52.962Z,4.87
2019-03-27T11:20:30.402Z,4.45
2019-03-27T11:22:48.387Z,5.67
2019-03-27T11:25:15.087Z,5.00
2019-03-27T11:27:41.762Z,4.35
2019-03-27T11:30:09.708Z,4.42
2019-03-27T11:32:36.388Z,4.72
2019-03-27T11:35:03.693Z,4.87
2019-03-27T11:37:30.346Z,5.03
2019-03-27T11:39:57.030Z,5.62
2019-03-27T11:42:23.778Z,5.55
2019-03-27T11:44:50.490Z,4.15
2019-03-27T11:47:17.212Z,4.35
2019-03-27T11:49:43.830Z,4.33
2019-03-27T11:52:10.530Z,4.95
2019-03-27T11:54:37.299Z,4.28
2019-03-27T11:57:04.011Z,5.00
2019-03-27T11:59:31.706Z,4.65
2019-03-27T12:01:58.408Z,4.50
2019-03-27T12:04:24.997Z,4.85
2019-03-27T12:06:51.725Z,4.50
2019-03-27T12:09:18.398Z,4.40
2019-03-27T12:11:45.115Z,3.85
2019-03-27T12:14:12.359Z,4.22
2019-03-27T12:16:39.225Z,4.15
2019-03-27T12:19:05.824Z,4.30
2019-03-27T12:21:32.456Z,4.08
2019-03-27T12:23:59.207Z,4.55
2019-03-27T12:26:25.809Z,4.37
2019-03-27T12:28:52.436Z,3.90
2019-03-27T12:31:19.120Z,4.47
2019-03-27T12:33:46.841Z,4.12
2019-03-27T12:36:13.431Z,4.30
2019-03-27T12:38:40.121Z,3.65
2019-03-27T12:41:06.731Z,4.30
2019-03-27T12:43:33.324Z,4.70
2019-03-27T12:46:00.011Z,4.10
2019-03-27T12:48:26.855Z,3.72
2019-03-27T12:50:53.445Z,3.95
2019-03-27T12:53:20.114Z,4.62
2019-03-27T12:55:46.891Z,4.15
2019-03-27T12:58:13.604Z,3.92
2019-03-27T13:00:40.307Z,4.00
2019-03-27T13:03:07.219Z,4.10
2019-03-27T13:05:33.883Z,3.40
2019-03-27T13:08:00.566Z,3.10
2019-03-27T13:10:27.282Z,3.37
2019-03-27T13:12:54.024Z,3.20
2019-03-27T13:15:20.761Z,3.02
2019-03-27T13:17:47.376Z,3.15
2019-03-27T13:20:14.032Z,3.25
2019-03-27T13:22:40.723Z,3.20
2019-03-27T13:25:07.864Z,2.72
2019-03-27T13:27:34.595Z,3.25
2019-03-27T13:30:01.295Z,3.27
2019-03-27T13:32:27.910Z,3.37
2019-03-27T13:34:54.579Z,2.77
2019-03-27T13:37:21.296Z,2.90
2019-03-27T13:39:47.894Z,2.85
2019-03-27T13:42:14.579Z,2.65
2019-03-27T13:44:41.273Z,3.02
2019-03-27T13:47:08.108Z,3.10
2019-03-27T13:49:34.863Z,2.50
2019-03-27T13:52:02.694Z,2.80
2019-03-27T13:54:29.301Z,2.70
2019-03-27T13:56:56.038Z,2.70
2019-03-27T13:59:22.789Z,3.12
2019-03-27T14:01:49.418Z,3.00
2019-03-27T14:04:16.039Z,3.00
2019-03-27T14:06:44.919Z,2.60
2019-03-27T14:09:11.774Z,3.05
2019-03-27T14:11:38.561Z,3.08
2019-03-27T14:14:11.137Z,3.20
2019-03-27T14:16:34.035Z,3.00
2019-03-27T14:19:00.723Z,3.00
2019-03-27T14:21:27.454Z,3.05
2019-03-27T14:23:54.131Z,2.80
2019-03-27T14:26:20.820Z,2.98
2019-03-27T14:28:47.519Z,2.47
2019-03-27T14:31:14.272Z,2.85
2019-03-27T14:33:40.986Z,3.05
2019-03-27T14:36:07.717Z,3.08
2019-03-27T14:38:34.326Z,3.02
2019-03-27T14:41:01.006Z,3.20
2019-03-27T14:43:27.680Z,3.00
2019-03-27T14:45:54.387Z,2.92
2019-03-27T14:48:21.067Z,3.10
2019-03-27T14:50:47.793Z,3.02
2019-03-27T14:53:14.411Z,2.70
2019-03-27T14:55:41.119Z,3.00
2019-03-27T14:58:07.887Z,2.52
2019-03-27T15:00:34.515Z,2.70
2019-03-27T15:03:01.245Z,2.70
2019-03-27T15:05:27.935Z,2.75
2019-03-27T15:07:54.576Z,2.52
2019-03-27T15:10:21.215Z,2.70
2019-03-27T15:12:47.932Z,2.52
2019-03-27T15:15:14.941Z,3.08
2019-03-27T15:17:41.672Z,3.02
2019-03-27T15:20:08.927Z,3.33
2019-03-27T15:22:35.579Z,2.40
2019-03-27T15:25:03.936Z,2.70
2019-03-27T15:27:30.654Z,2.75
2019-03-27T15:29:57.248Z,3.33
2019-03-27T15:32:23.894Z,2.87
2019-03-27T15:34:50.617Z,2.60
2019-03-27T15:37:17.263Z,2.67
2019-03-27T15:39:43.885Z,2.37
2019-03-27T15:42:10.573Z,2.65
2019-03-27T15:44:37.183Z,2.50
2019-03-27T15:47:03.862Z,2.50
2019-03-27T15:49:30.538Z,2.50
2019-03-27T15:51:57.259Z,2.90
2019-03-27T15:54:23.975Z,3.15
2019-03-27T15:56:50.693Z,2.65
2019-03-27T15:59:17.353Z,3.30
2019-03-27T16:01:43.981Z,2.90
2019-03-27T16:04:10.772Z,2.80
2019-03-27T16:06:37.456Z,3.10
2019-03-27T16:09:07.802Z,3.00
2019-03-27T16:11:34.626Z,3.12
2019-03-27T16:14:01.228Z,3.27
2019-03-27T16:16:27.884Z,3.22
2019-03-27T16:18:54.597Z,3.62
2019-03-27T16:21:21.301Z,4.37
2019-03-27T16:23:47.960Z,3.70
2019-03-27T16:26:14.658Z,3.15
2019-03-27T16:28:41.252Z,3.30
2019-03-27T16:31:08.014Z,3.77
2019-03-27T16:33:34.705Z,3.90
2019-03-27T16:36:01.327Z,3.55
2019-03-27T16:38:28.044Z,4.17
2019-03-27T16:40:54.770Z,3.52
2019-03-27T16:43:21.441Z,3.55
2019-03-27T16:45:48.354Z,6.45
2019-03-27T16:48:15.072Z,6.92
2019-03-27T16:50:41.799Z,6.75
2019-03-27T16:53:08.451Z,7.53
2019-03-27T16:55:35.167Z,9.25
2019-03-27T16:58:01.877Z,9.08
2019-03-27T17:00:28.618Z,6.28
2019-03-27T17:02:55.334Z,6.70
2019-03-27T17:05:21.967Z,7.05
2019-03-27T17:07:48.589Z,7.15
2019-03-27T17:10:15.293Z,6.78
2019-03-27T17:12:41.991Z,5.42
2019-03-27T17:15:08.784Z,5.65
2019-03-27T17:17:35.477Z,6.50
2019-03-27T17:20:03.376Z,6.83
2019-03-27T17:22:29.987Z,5.53
2019-03-27T17:24:56.667Z,5.15
2019-03-27T17:27:23.280Z,4.35
2019-03-27T17:29:49.893Z,4.35
2019-03-27T17:32:16.598Z,4.92
2019-03-27T17:34:43.194Z,5.83
2019-03-27T17:37:09.799Z,4.95
2019-03-27T17:39:36.500Z,5.17
2019-03-27T17:42:03.169Z,6.47
2019-03-27T17:44:29.837Z,10.78
2019-03-27T17:46:56.536Z,13.93
2019-03-27T17:49:23.158Z,11.88
2019-03-27T17:51:49.879Z,6.83
2019-03-27T17:54:20.845Z,6.33
2019-03-27T17:56:45.102Z,9.83
2019-03-27T17:59:11.844Z,9.90
2019-03-27T18:01:38.698Z,9.23
2019-03-27T18:04:06.417Z,8.45
2019-03-27T18:06:33.137Z,6.90
2019-03-27T18:08:59.881Z,8.03
2019-03-27T18:11:26.589Z,7.60
2019-03-27T18:13:53.307Z,7.00
2019-03-27T18:16:19.978Z,7.30
2019-03-27T18:18:46.691Z,7.62
2019-03-27T18:21:13.402Z,8.85
2019-03-27T18:23:46.403Z,12.47
2019-03-27T18:26:08.857Z,14.13
2019-03-27T18:28:36.581Z,17.75
2019-03-27T18:31:03.348Z,12.13
2019-03-27T18:33:30.134Z,9.20
2019-03-27T18:35:56.859Z,9.43
2019-03-27T18:38:23.556Z,10.50
2019-03-27T18:40:50.169Z,14.00
2019-03-27T18:43:16.792Z,16.77
2019-03-27T18:45:43.484Z,20.97
2019-03-27T18:48:10.080Z,14.68
2019-03-27T18:50:36.705Z,14.85
2019-03-27T18:53:03.355Z,13.32
2019-03-27T18:55:29.970Z,12.40
2019-03-27T18:58:00.274Z,25.37
2019-03-27T19:00:25.243Z,18.80
2019-03-27T19:02:51.918Z,12.30
2019-03-27T19:05:18.549Z,12.68
2019-03-27T19:07:45.245Z,15.15
2019-03-27T19:10:12.159Z,12.30
2019-03-27T19:12:38.834Z,14.65
2019-03-27T19:15:05.818Z,18.10
2019-03-27T19:17:32.552Z,22.27
2019-03-27T19:19:59.251Z,20.65
2019-03-27T19:22:25.991Z,17.57
2019-03-27T19:24:52.597Z,15.40
2019-03-27T19:27:19.311Z,15.60
2019-03-27T19:29:46.089Z,15.48
2019-03-27T19:32:12.803Z,15.72
2019-03-27T19:34:39.570Z,15.43
2019-03-27T19:37:06.274Z,16.12
2019-03-27T19:39:32.883Z,15.45
2019-03-27T19:41:59.611Z,14.58
2019-03-27T19:44:26.372Z,14.90
2019-03-27T19:46:53.105Z,14.15
2019-03-27T19:49:19.899Z,14.50
2019-03-27T19:51:46.523Z,14.07
2019-03-27T19:54:26.224Z,12.47
2019-03-27T19:56:42.823Z,13.43
2019-03-27T19:59:09.472Z,12.93
2019-03-27T20:01:36.176Z,12.45
2019-03-27T20:04:02.902Z,12.95
2019-03-27T20:06:29.600Z,11.73
2019-03-27T20:08:57.256Z,11.65
2019-03-27T20:11:23.976Z,11.48
2019-03-27T20:13:50.760Z,11.12
2019-03-27T20:16:17.488Z,12.23
2019-03-27T20:18:44.216Z,11.65
2019-03-27T20:21:10.939Z,11.93
2019-03-27T20:23:37.709Z,11.03
2019-03-27T20:26:04.432Z,11.18
2019-03-27T20:28:31.158Z,10.70
2019-03-27T20:30:57.867Z,11.50
2019-03-27T20:33:24.488Z,9.88
2019-03-27T20:35:51.199Z,9.88
2019-03-27T20:38:17.949Z,10.03
2019-03-27T20:40:44.645Z,9.68
2019-03-27T20:43:11.363Z,9.45
2019-03-27T20:45:38.189Z,10.15
2019-03-27T20:48:04.838Z,9.60
2019-03-27T20:50:32.495Z,9.60
2019-03-27T20:52:59.254Z,10.20
2019-03-27T20:55:30.678Z,9.70
2019-03-27T20:57:54.607Z,10.58
2019-03-27T21:00:21.231Z,10.18
2019-03-27T21:02:48.122Z,10.05
2019-03-27T21:05:15.703Z,9.70
2019-03-27T21:07:43.403Z,9.15
2019-03-27T21:10:12.913Z,9.10
2019-03-27T21:12:39.664Z,8.70
2019-03-27T21:15:07.333Z,9.38
2019-03-27T21:17:34.015Z,8.68
2019-03-27T21:20:00.676Z,9.20
2019-03-27T21:22:27.311Z,8.15
2019-03-27T21:25:07.672Z,8.15
2019-03-27T21:27:22.610Z,8.43
2019-03-27T21:29:49.239Z,8.25
2019-03-27T21:32:15.875Z,8.70
2019-03-27T21:34:42.570Z,8.28
2019-03-27T21:37:09.239Z,8.30
2019-03-27T21:39:35.946Z,8.10
2019-03-27T21:42:02.641Z,9.30
2019-03-27T21:44:29.306Z,10.03
2019-03-27T21:46:55.929Z,11.38
2019-03-27T21:49:22.633Z,10.63
2019-03-27T21:51:49.253Z,9.60
2019-03-27T21:54:15.890Z,9.40
2019-03-27T21:56:42.564Z,13.22
2019-03-27T21:59:09.221Z,14.87
2019-03-27T22:01:35.879Z,14.83
2019-03-27T22:04:02.566Z,16.32
2019-03-27T22:06:29.251Z,14.20
2019-03-27T22:08:56.159Z,15.25
2019-03-27T22:11:22.834Z,14.60
2019-03-27T22:13:49.464Z,15.35
2019-03-27T22:16:16.112Z,13.55
2019-03-27T22:18:42.816Z,14.00
2019-03-27T22:21:09.412Z,14.65
2019-03-27T22:23:36.080Z,15.05
2019-03-27T22:26:02.822Z,16.50
2019-03-27T22:28:29.510Z,14.45
2019-03-27T22:30:56.139Z,11.08
2019-03-27T22:33:22.835Z,10.55
2019-03-27T22:35:49.433Z,9.70
2019-03-27T22:38:16.087Z,8.68
2019-03-27T22:40:42.877Z,11.93
2019-03-27T22:43:09.504Z,13.62
2019-03-27T22:45:36.142Z,13.53
2019-03-27T22:48:02.863Z,12.80
2019-03-27T22:50:29.457Z,14.10
2019-03-27T22:52:56.139Z,13.45
2019-03-27T22:55:22.839Z,12.93
2019-03-27T22:57:49.480Z,12.25
2019-03-27T23:00:17.559Z,12.58
2019-03-27T23:02:46.042Z,13.30
2019-03-27T23:05:12.733Z,14.45
2019-03-27T23:07:39.490Z,13.40
2019-03-27T23:10:06.503Z,14.78
2019-03-27T23:12:33.138Z,14.35
2019-03-27T23:14:59.782Z,14.53
2019-03-27T23:17:27.447Z,16.02
2019-03-27T23:19:54.149Z,14.30
2019-03-27T23:22:20.858Z,15.60
2019-03-27T23:24:47.789Z,13.58
2019-03-27T23:27:14.388Z,13.62
2019-03-27T23:29:41.011Z,13.40
2019-03-27T23:32:08.229Z,13.10
2019-03-27T23:34:34.822Z,12.65
2019-03-27T23:37:01.461Z,11.43
2019-03-27T23:39:28.176Z,11.97
2019-03-27T23:41:54.830Z,11.48
2019-03-27T23:44:21.439Z,11.05
2019-03-27T23:46:48.142Z,10.93
2019-03-27T23:49:14.734Z,11.30
2019-03-27T23:51:42.447Z,10.40
2019-03-27T23:54:09.105Z,10.28
2019-03-27T23:56:35.703Z,10.18
2019-03-27T23:59:02.290Z,10.32
